createdAt,value
2018-12-26T00:00:56.332Z,12.70
2018-12-26T00:01:56.313Z,12.10
2018-12-26T00:02:56.316Z,11.20
2018-12-26T00:03:56.299Z,14.70
2018-12-26T00:04:56.278Z,11.70
2018-12-26T00:05:56.273Z,12.20
2018-12-26T00:06:56.275Z,11.00
2018-12-26T00:07:56.278Z,12.10
2018-12-26T00:08:56.241Z,11.60
2018-12-26T00:09:56.222Z,11.30
2018-12-26T00:10:56.212Z,12.40
2018-12-26T00:11:56.232Z,11.20
2018-12-26T00:12:56.209Z,11.40
2018-12-26T00:13:56.203Z,11.00
2018-12-26T00:14:56.178Z,11.20
2018-12-26T00:15:56.159Z,12.50
2018-12-26T00:16:56.151Z,11.60
2018-12-26T00:17:56.135Z,12.10
2018-12-26T00:18:56.157Z,11.20
2018-12-26T00:19:56.209Z,11.50
2018-12-26T00:20:56.100Z,12.20
2018-12-26T00:21:56.096Z,11.20
2018-12-26T00:22:56.082Z,11.80
2018-12-26T00:23:56.176Z,11.00
2018-12-26T00:24:56.068Z,11.70
2018-12-26T00:26:01.603Z,10.60
2018-12-26T00:26:57.033Z,11.30
2018-12-26T00:27:56.030Z,10.50
2018-12-26T00:28:56.030Z,9.60
2018-12-26T00:29:56.009Z,11.10
2018-12-26T00:30:56.002Z,11.00
2018-12-26T00:31:55.992Z,10.00
2018-12-26T00:32:55.966Z,9.70
2018-12-26T00:33:56.003Z,11.20
2018-12-26T00:34:55.944Z,9.90
2018-12-26T00:35:55.945Z,10.00
2018-12-26T00:36:55.937Z,10.50
2018-12-26T00:37:55.911Z,9.80
2018-12-26T00:38:55.900Z,10.10
2018-12-26T00:39:55.903Z,9.60
2018-12-26T00:40:55.884Z,10.00
2018-12-26T00:41:55.875Z,10.80
2018-12-26T00:42:55.876Z,9.60
2018-12-26T00:43:55.850Z,9.20
2018-12-26T00:44:55.851Z,10.30
2018-12-26T00:45:55.829Z,9.40
2018-12-26T00:46:55.819Z,10.40
2018-12-26T00:47:55.807Z,8.90
2018-12-26T00:48:55.807Z,9.50
2018-12-26T00:49:55.800Z,9.00
2018-12-26T00:50:55.772Z,9.60
2018-12-26T00:51:55.756Z,10.10
2018-12-26T00:52:55.745Z,9.60
2018-12-26T00:53:55.746Z,9.90
2018-12-26T00:54:55.743Z,10.80
2018-12-26T00:55:55.710Z,11.30
2018-12-26T00:56:55.705Z,8.80
2018-12-26T00:57:55.692Z,9.80
2018-12-26T00:58:55.685Z,11.50
2018-12-26T00:59:55.694Z,9.90
2018-12-26T01:00:55.654Z,9.70
2018-12-26T01:01:55.644Z,8.50
2018-12-26T01:02:55.708Z,9.70
2018-12-26T01:03:55.647Z,11.00
2018-12-26T01:04:55.629Z,9.40
2018-12-26T01:05:55.613Z,9.70
2018-12-26T01:06:55.606Z,10.00
2018-12-26T01:07:55.575Z,8.90
2018-12-26T01:08:55.571Z,9.90
2018-12-26T01:09:55.851Z,11.40
2018-12-26T01:10:55.544Z,12.20
2018-12-26T01:11:55.543Z,10.70
2018-12-26T01:12:55.544Z,8.60
2018-12-26T01:13:55.512Z,9.10
2018-12-26T01:14:55.497Z,10.60
2018-12-26T01:15:55.506Z,9.90
2018-12-26T01:16:55.483Z,10.50
2018-12-26T01:17:55.474Z,8.60
2018-12-26T01:18:55.468Z,9.50
2018-12-26T01:19:55.445Z,8.30
2018-12-26T01:20:55.466Z,9.80
2018-12-26T01:21:55.427Z,7.40
2018-12-26T01:22:55.495Z,7.70
2018-12-26T01:23:55.422Z,10.10
2018-12-26T01:24:55.394Z,9.20
2018-12-26T01:25:55.394Z,10.00
2018-12-26T01:26:55.371Z,7.50
2018-12-26T01:27:55.353Z,8.90
2018-12-26T01:28:55.353Z,9.10
2018-12-26T01:29:55.335Z,8.00
2018-12-26T01:30:55.367Z,7.40
2018-12-26T01:31:55.320Z,7.80
2018-12-26T01:32:55.298Z,10.30
2018-12-26T01:33:55.293Z,7.70
2018-12-26T01:34:55.289Z,8.20
2018-12-26T01:35:56.127Z,7.80
2018-12-26T01:36:55.267Z,7.90
2018-12-26T01:37:55.243Z,8.10
2018-12-26T01:38:55.234Z,9.30
2018-12-26T01:39:55.225Z,10.40
2018-12-26T01:40:55.253Z,8.10
2018-12-26T01:41:55.199Z,7.20
2018-12-26T01:42:55.210Z,7.90
2018-12-26T01:43:55.176Z,8.00
2018-12-26T01:44:55.178Z,8.10
2018-12-26T01:45:55.154Z,8.10
2018-12-26T01:46:55.160Z,8.10
2018-12-26T01:47:55.133Z,9.00
2018-12-26T01:48:55.134Z,6.60
2018-12-26T01:49:55.118Z,7.20
2018-12-26T01:50:55.098Z,8.10
2018-12-26T01:51:55.106Z,7.60
2018-12-26T01:52:55.077Z,7.10
2018-12-26T01:53:55.071Z,7.30
2018-12-26T01:54:55.073Z,7.60
2018-12-26T01:55:55.050Z,7.40
2018-12-26T01:56:55.054Z,6.80
2018-12-26T01:57:55.032Z,7.90
2018-12-26T01:58:55.012Z,9.30
2018-12-26T01:59:55.004Z,7.40
2018-12-26T02:00:55.007Z,8.70
2018-12-26T02:01:54.996Z,8.50
2018-12-26T02:02:54.971Z,6.50
2018-12-26T02:03:54.967Z,7.90
2018-12-26T02:04:54.944Z,7.10
2018-12-26T02:05:54.931Z,6.40
2018-12-26T02:06:54.950Z,10.20
2018-12-26T02:07:54.921Z,8.90
2018-12-26T02:08:54.902Z,7.60
2018-12-26T02:09:54.908Z,8.10
2018-12-26T02:10:54.879Z,7.00
2018-12-26T02:11:54.880Z,5.80
2018-12-26T02:12:54.907Z,8.00
2018-12-26T02:13:54.843Z,6.70
2018-12-26T02:14:54.845Z,6.90
2018-12-26T02:15:54.827Z,7.20
2018-12-26T02:16:54.839Z,6.40
2018-12-26T02:17:54.799Z,7.00
2018-12-26T02:18:54.795Z,6.50
2018-12-26T02:19:54.776Z,6.30
2018-12-26T02:20:54.777Z,6.50
2018-12-26T02:21:54.779Z,6.80
2018-12-26T02:22:54.749Z,7.90
2018-12-26T02:23:54.745Z,5.50
2018-12-26T02:24:54.725Z,8.10
2018-12-26T02:25:54.747Z,6.50
2018-12-26T02:26:54.713Z,6.40
2018-12-26T02:27:54.706Z,9.00
2018-12-26T02:28:54.675Z,9.80
2018-12-26T02:29:54.677Z,10.70
2018-12-26T02:30:54.662Z,13.60
2018-12-26T02:31:54.651Z,6.50
2018-12-26T02:32:54.656Z,7.30
2018-12-26T02:33:54.622Z,8.80
2018-12-26T02:34:54.608Z,8.80
2018-12-26T02:35:54.609Z,7.80
2018-12-26T02:36:54.586Z,8.00
2018-12-26T02:37:54.590Z,7.30
2018-12-26T02:38:54.568Z,8.40
2018-12-26T02:39:54.560Z,7.30
2018-12-26T02:40:54.550Z,6.10
2018-12-26T02:41:54.539Z,5.80
2018-12-26T02:42:54.542Z,7.00
2018-12-26T02:43:54.527Z,8.90
2018-12-26T02:44:54.499Z,6.20
2018-12-26T02:45:54.488Z,5.90
2018-12-26T02:46:54.476Z,6.90
2018-12-26T02:47:54.494Z,7.20
2018-12-26T02:48:54.460Z,7.90
2018-12-26T02:49:54.451Z,6.70
2018-12-26T02:50:54.430Z,6.10
2018-12-26T02:51:54.428Z,6.10
2018-12-26T02:52:54.423Z,6.70
2018-12-26T02:53:54.420Z,5.50
2018-12-26T02:54:54.396Z,6.40
2018-12-26T02:55:54.389Z,7.00
2018-12-26T02:56:54.363Z,7.30
2018-12-26T02:57:54.377Z,6.90
2018-12-26T02:58:54.343Z,5.70
2018-12-26T02:59:54.372Z,6.40
2018-12-26T03:00:54.330Z,6.00
2018-12-26T03:01:54.316Z,5.40
2018-12-26T03:02:54.312Z,6.60
2018-12-26T03:03:54.285Z,5.40
2018-12-26T03:04:54.276Z,5.70
2018-12-26T03:05:54.272Z,6.30
2018-12-26T03:06:54.264Z,5.60
2018-12-26T03:07:54.263Z,5.40
2018-12-26T03:08:54.231Z,5.40
2018-12-26T03:09:54.221Z,5.80
2018-12-26T03:10:54.209Z,5.80
2018-12-26T03:11:54.212Z,5.30
2018-12-26T03:12:54.209Z,5.90
2018-12-26T03:13:54.176Z,5.90
2018-12-26T03:14:54.162Z,4.80
2018-12-26T03:15:54.155Z,6.40
2018-12-26T03:16:54.145Z,5.30
2018-12-26T03:17:54.187Z,5.10
2018-12-26T03:18:54.125Z,6.50
2018-12-26T03:19:54.112Z,5.60
2018-12-26T03:20:54.102Z,6.80
2018-12-26T03:21:54.091Z,5.50
2018-12-26T03:22:54.075Z,6.20
2018-12-26T03:23:54.090Z,4.90
2018-12-26T03:24:54.057Z,5.60
2018-12-26T03:25:54.041Z,5.30
2018-12-26T03:26:56.437Z,5.00
2018-12-26T03:27:54.027Z,4.50
2018-12-26T03:28:54.026Z,5.50
2018-12-26T03:29:54.031Z,5.10
2018-12-26T03:30:53.987Z,5.10
2018-12-26T03:31:53.982Z,5.50
2018-12-26T03:32:53.968Z,5.20
2018-12-26T03:33:53.968Z,4.80
2018-12-26T03:34:53.946Z,5.80
2018-12-26T03:35:53.950Z,5.30
2018-12-26T03:36:53.927Z,6.90
2018-12-26T03:37:53.906Z,5.40
2018-12-26T03:38:53.917Z,4.80
2018-12-26T03:39:53.887Z,4.80
2018-12-26T03:40:53.884Z,5.40
2018-12-26T03:41:53.882Z,5.60
2018-12-26T03:42:53.957Z,4.70
2018-12-26T03:43:53.863Z,6.60
2018-12-26T03:44:53.837Z,5.50
2018-12-26T03:45:53.826Z,4.80
2018-12-26T03:46:53.809Z,6.90
2018-12-26T03:47:53.829Z,4.60
2018-12-26T03:48:53.800Z,4.60
2018-12-26T03:49:53.774Z,5.30
2018-12-26T03:50:53.763Z,6.00
2018-12-26T03:51:53.764Z,4.60
2018-12-26T03:52:53.753Z,4.60
2018-12-26T03:53:53.770Z,5.10
2018-12-26T03:54:53.720Z,5.80
2018-12-26T03:55:53.714Z,6.30
2018-12-26T03:56:53.709Z,5.10
2018-12-26T03:57:53.697Z,5.30
2018-12-26T03:58:53.707Z,5.00
2018-12-26T03:59:53.671Z,4.50
2018-12-26T04:00:53.656Z,5.40
2018-12-26T04:01:53.650Z,6.00
2018-12-26T04:02:53.642Z,5.10
2018-12-26T04:03:53.634Z,4.50
2018-12-26T04:04:53.628Z,3.70
2018-12-26T04:05:53.595Z,5.60
2018-12-26T04:06:53.583Z,5.50
2018-12-26T04:07:53.573Z,5.10
2018-12-26T04:08:53.576Z,4.90
2018-12-26T04:09:53.556Z,5.50
2018-12-26T04:10:53.545Z,4.30
2018-12-26T04:11:53.534Z,4.60
2018-12-26T04:12:53.524Z,5.60
2018-12-26T04:13:53.536Z,4.70
2018-12-26T04:14:53.498Z,4.60
2018-12-26T04:15:53.494Z,4.80
2018-12-26T04:16:53.501Z,4.70
2018-12-26T04:17:53.462Z,4.10
2018-12-26T04:18:53.451Z,4.50
2018-12-26T04:19:53.461Z,5.40
2018-12-26T04:20:53.428Z,5.20
2018-12-26T04:21:53.428Z,4.50
2018-12-26T04:22:53.418Z,5.00
2018-12-26T04:23:53.403Z,4.50
2018-12-26T04:24:53.405Z,3.80
2018-12-26T04:25:53.375Z,4.00
2018-12-26T04:26:53.365Z,5.20
2018-12-26T04:27:53.350Z,4.40
2018-12-26T04:28:53.348Z,4.90
2018-12-26T04:29:53.343Z,4.60
2018-12-26T04:30:53.320Z,4.50
2018-12-26T04:31:53.306Z,4.90
2018-12-26T04:32:53.301Z,4.70
2018-12-26T04:33:53.284Z,4.50
2018-12-26T04:34:53.302Z,5.20
2018-12-26T04:35:53.260Z,3.70
2018-12-26T04:36:53.264Z,4.20
2018-12-26T04:37:53.244Z,3.80
2018-12-26T04:38:53.230Z,4.00
2018-12-26T04:39:53.247Z,4.60
2018-12-26T04:40:53.216Z,3.70
2018-12-26T04:41:53.196Z,4.90
2018-12-26T04:42:53.181Z,3.30
2018-12-26T04:43:53.171Z,3.90
2018-12-26T04:44:53.186Z,4.00
2018-12-26T04:45:53.257Z,3.90
2018-12-26T04:46:53.156Z,4.10
2018-12-26T04:47:53.137Z,4.10
2018-12-26T04:48:53.115Z,4.40
2018-12-26T04:49:53.119Z,3.70
2018-12-26T04:50:53.093Z,4.30
2018-12-26T04:51:53.083Z,4.60
2018-12-26T04:52:53.083Z,4.60
2018-12-26T04:53:53.073Z,4.00
2018-12-26T04:54:53.080Z,4.20
2018-12-26T04:55:53.043Z,3.80
2018-12-26T04:56:53.031Z,4.00
2018-12-26T04:57:53.016Z,3.90
2018-12-26T04:58:53.017Z,4.10
2018-12-26T04:59:53.018Z,5.00
2018-12-26T05:00:52.988Z,3.40
2018-12-26T05:01:52.982Z,3.90
2018-12-26T05:02:52.965Z,3.10
2018-12-26T05:03:52.950Z,3.50
2018-12-26T05:04:52.964Z,5.10
2018-12-26T05:05:52.925Z,3.00
2018-12-26T05:06:52.921Z,4.60
2018-12-26T05:07:52.918Z,5.90
2018-12-26T05:08:52.893Z,4.20
2018-12-26T05:09:52.920Z,4.20
2018-12-26T05:10:52.891Z,3.70
2018-12-26T05:11:52.859Z,5.90
2018-12-26T05:12:52.859Z,9.20
2018-12-26T05:13:52.836Z,4.70
2018-12-26T05:14:52.827Z,7.20
2018-12-26T05:15:52.830Z,3.50
2018-12-26T05:16:52.826Z,4.30
2018-12-26T05:17:52.798Z,4.80
2018-12-26T05:18:52.787Z,4.60
2018-12-26T05:19:52.770Z,3.50
2018-12-26T05:20:52.777Z,4.50
2018-12-26T05:21:52.746Z,3.40
2018-12-26T05:22:52.760Z,5.40
2018-12-26T05:23:52.731Z,4.00
2018-12-26T05:24:52.713Z,3.60
2018-12-26T05:25:52.723Z,3.20
2018-12-26T05:26:52.698Z,3.40
2018-12-26T05:27:53.206Z,3.20
2018-12-26T05:28:52.675Z,4.10
2018-12-26T05:29:52.666Z,3.80
2018-12-26T05:30:52.668Z,5.70
2018-12-26T05:31:52.642Z,3.70
2018-12-26T05:32:52.632Z,3.60
2018-12-26T05:33:52.692Z,3.40
2018-12-26T05:34:52.608Z,3.00
2018-12-26T05:35:52.609Z,3.20
2018-12-26T05:36:52.581Z,4.20
2018-12-26T05:37:52.568Z,3.00
2018-12-26T05:38:52.557Z,5.40
2018-12-26T05:39:52.566Z,3.30
2018-12-26T05:40:52.557Z,3.10
2018-12-26T05:41:52.535Z,4.30
2018-12-26T05:42:52.519Z,3.90
2018-12-26T05:43:52.501Z,3.80
2018-12-26T05:44:52.490Z,3.90
2018-12-26T05:45:52.516Z,3.00
2018-12-26T05:46:52.477Z,3.20
2018-12-26T05:47:52.470Z,5.00
2018-12-26T05:48:52.447Z,3.20
2018-12-26T05:49:52.436Z,3.60
2018-12-26T05:50:52.443Z,3.10
2018-12-26T05:51:52.455Z,3.90
2018-12-26T05:52:52.424Z,3.20
2018-12-26T05:53:52.390Z,3.40
2018-12-26T05:54:52.380Z,3.10
2018-12-26T05:55:52.385Z,2.50
2018-12-26T05:56:52.364Z,5.00
2018-12-26T05:57:52.346Z,3.00
2018-12-26T05:58:52.355Z,3.40
2018-12-26T05:59:52.330Z,2.70
2018-12-26T06:00:52.327Z,3.40
2018-12-26T06:01:52.308Z,3.40
2018-12-26T06:02:52.299Z,2.90
2018-12-26T06:03:52.289Z,3.20
2018-12-26T06:04:52.287Z,3.60
2018-12-26T06:05:52.297Z,3.50
2018-12-26T06:06:52.244Z,3.40
2018-12-26T06:07:52.235Z,3.80
2018-12-26T06:08:52.241Z,3.50
2018-12-26T06:09:52.217Z,3.70
2018-12-26T06:10:52.219Z,3.50
2018-12-26T06:11:52.206Z,3.50
2018-12-26T06:12:52.184Z,3.60
2018-12-26T06:13:52.167Z,3.00
2018-12-26T06:14:52.163Z,2.60
2018-12-26T06:15:52.160Z,4.00
2018-12-26T06:16:52.167Z,2.80
2018-12-26T06:17:52.123Z,3.00
2018-12-26T06:18:52.114Z,2.40
2018-12-26T06:19:52.107Z,3.30
2018-12-26T06:20:52.095Z,3.00
2018-12-26T06:21:52.104Z,3.10
2018-12-26T06:22:52.144Z,2.40
2018-12-26T06:23:52.059Z,3.10
2018-12-26T06:24:52.052Z,2.40
2018-12-26T06:25:52.037Z,2.30
2018-12-26T06:26:52.044Z,2.70
2018-12-26T06:27:52.019Z,2.60
2018-12-26T06:28:52.007Z,3.40
2018-12-26T06:29:51.988Z,2.80
2018-12-26T06:30:51.987Z,3.00
2018-12-26T06:31:51.991Z,2.60
2018-12-26T06:32:51.957Z,2.50
2018-12-26T06:33:51.947Z,2.70
2018-12-26T06:34:51.947Z,3.00
2018-12-26T06:35:51.929Z,3.50
2018-12-26T06:36:51.930Z,3.00
2018-12-26T06:37:51.911Z,2.50
2018-12-26T06:38:51.897Z,2.60
2018-12-26T06:39:51.880Z,2.90
2018-12-26T06:40:51.873Z,2.90
2018-12-26T06:41:51.874Z,2.30
2018-12-26T06:42:51.843Z,4.20
2018-12-26T06:43:51.839Z,2.60
2018-12-26T06:44:51.828Z,2.80
2018-12-26T06:45:51.818Z,3.00
2018-12-26T06:46:51.826Z,2.50
2018-12-26T06:47:51.789Z,2.50
2018-12-26T06:48:51.781Z,2.90
2018-12-26T06:49:51.772Z,3.60
2018-12-26T06:50:51.754Z,3.70
2018-12-26T06:51:51.760Z,4.20
2018-12-26T06:52:51.743Z,3.10
2018-12-26T06:53:51.723Z,2.40
2018-12-26T06:54:51.711Z,3.00
2018-12-26T06:55:51.701Z,2.60
2018-12-26T06:56:51.705Z,2.70
2018-12-26T06:57:59.895Z,2.50
2018-12-26T06:58:52.681Z,3.50
2018-12-26T06:59:51.656Z,2.80
2018-12-26T07:00:51.643Z,3.90
2018-12-26T07:01:51.666Z,3.70
2018-12-26T07:02:51.647Z,3.00
2018-12-26T07:03:51.617Z,2.60
2018-12-26T07:04:51.614Z,2.10
2018-12-26T07:05:51.589Z,2.00
2018-12-26T07:06:51.585Z,3.00
2018-12-26T07:07:51.585Z,2.40
2018-12-26T07:08:51.561Z,2.80
2018-12-26T07:09:51.545Z,3.00
2018-12-26T07:10:51.541Z,2.20
2018-12-26T07:11:51.529Z,4.00
2018-12-26T07:12:51.536Z,3.30
2018-12-26T07:13:51.518Z,2.70
2018-12-26T07:14:51.496Z,2.50
2018-12-26T07:15:51.477Z,2.40
2018-12-26T07:16:51.479Z,2.90
2018-12-26T07:17:51.474Z,2.60
2018-12-26T07:18:51.456Z,2.50
2018-12-26T07:19:51.435Z,2.60
2018-12-26T07:20:51.420Z,2.60
2018-12-26T07:21:51.410Z,2.90
2018-12-26T07:22:51.436Z,2.00
2018-12-26T07:23:51.387Z,1.70
2018-12-26T07:24:51.382Z,2.70
2018-12-26T07:25:51.366Z,2.80
2018-12-26T07:26:51.356Z,2.70
2018-12-26T07:27:51.361Z,2.40
2018-12-26T07:28:51.345Z,2.60
2018-12-26T07:29:51.323Z,2.60
2018-12-26T07:30:51.320Z,3.90
2018-12-26T07:31:51.306Z,3.10
2018-12-26T07:32:51.304Z,2.70
2018-12-26T07:33:51.282Z,2.60
2018-12-26T07:34:51.280Z,2.20
2018-12-26T07:35:51.261Z,3.40
2018-12-26T07:36:51.250Z,2.70
2018-12-26T07:37:51.248Z,2.60
2018-12-26T07:38:51.227Z,2.00
2018-12-26T07:39:51.209Z,2.40
2018-12-26T07:40:51.220Z,2.50
2018-12-26T07:41:51.191Z,2.80
2018-12-26T07:42:51.205Z,2.30
2018-12-26T07:43:51.172Z,3.40
2018-12-26T07:44:51.159Z,2.10
2018-12-26T07:45:51.142Z,2.30
2018-12-26T07:46:51.150Z,3.30
2018-12-26T07:47:51.139Z,2.60
2018-12-26T07:48:51.112Z,2.40
2018-12-26T07:49:51.099Z,4.80
2018-12-26T07:50:51.087Z,3.30
2018-12-26T07:51:51.082Z,2.80
2018-12-26T07:52:51.097Z,2.30
2018-12-26T07:53:51.063Z,2.80
2018-12-26T07:54:51.085Z,1.80
2018-12-26T07:55:51.030Z,2.90
2018-12-26T07:56:51.021Z,1.90
2018-12-26T07:57:51.047Z,2.80
2018-12-26T07:58:51.007Z,2.50
2018-12-26T07:59:51.014Z,3.40
2018-12-26T08:00:50.975Z,2.60
2018-12-26T08:01:50.968Z,1.90
2018-12-26T08:02:50.964Z,1.90
2018-12-26T08:03:50.966Z,2.50
2018-12-26T08:04:51.296Z,2.10
2018-12-26T08:05:50.926Z,2.70
2018-12-26T08:06:50.918Z,3.70
2018-12-26T08:07:50.903Z,2.30
2018-12-26T08:08:50.922Z,2.10
2018-12-26T08:09:50.878Z,2.70
2018-12-26T08:10:50.875Z,2.20
2018-12-26T08:11:50.860Z,2.70
2018-12-26T08:12:51.218Z,1.90
2018-12-26T08:13:50.857Z,1.60
2018-12-26T08:14:50.828Z,2.10
2018-12-26T08:15:50.815Z,2.20
2018-12-26T08:16:50.809Z,2.70
2018-12-26T08:17:50.788Z,2.20
2018-12-26T08:18:50.806Z,2.40
2018-12-26T08:19:50.771Z,2.30
2018-12-26T08:20:50.772Z,3.20
2018-12-26T08:21:50.749Z,4.50
2018-12-26T08:22:50.749Z,3.40
2018-12-26T08:23:50.736Z,4.00
2018-12-26T08:24:50.730Z,3.30
2018-12-26T08:25:50.698Z,2.70
2018-12-26T08:26:50.691Z,2.70
2018-12-26T08:27:50.677Z,5.10
2018-12-26T08:28:50.684Z,2.70
2018-12-26T08:29:50.661Z,2.60
2018-12-26T08:30:50.663Z,3.30
2018-12-26T08:31:50.643Z,2.30
2018-12-26T08:32:50.620Z,2.40
2018-12-26T08:33:50.638Z,2.40
2018-12-26T08:34:50.604Z,1.80
2018-12-26T08:35:50.597Z,1.90
2018-12-26T08:36:50.583Z,2.00
2018-12-26T08:37:50.568Z,2.60
2018-12-26T08:38:50.575Z,3.20
2018-12-26T08:39:50.553Z,2.30
2018-12-26T08:40:50.532Z,2.50
2018-12-26T08:41:50.521Z,2.00
2018-12-26T08:42:50.519Z,2.60
2018-12-26T08:43:50.516Z,3.60
2018-12-26T08:44:50.496Z,2.10
2018-12-26T08:45:50.478Z,5.10
2018-12-26T08:46:50.472Z,2.20
2018-12-26T08:47:50.460Z,2.20
2018-12-26T08:48:50.466Z,3.00
2018-12-26T08:49:50.432Z,4.20
2018-12-26T08:50:50.433Z,2.10
2018-12-26T08:51:50.412Z,2.30
2018-12-26T08:52:50.407Z,2.00
2018-12-26T08:53:50.439Z,2.70
2018-12-26T08:54:50.384Z,1.60
2018-12-26T08:55:50.374Z,1.90
2018-12-26T08:56:50.357Z,2.60
2018-12-26T08:57:50.344Z,3.30
2018-12-26T08:58:50.332Z,3.00
2018-12-26T08:59:50.338Z,3.60
2018-12-26T09:00:50.318Z,2.40
2018-12-26T09:01:50.300Z,2.20
2018-12-26T09:02:50.298Z,3.80
2018-12-26T09:03:50.276Z,3.20
2018-12-26T09:04:50.281Z,5.90
2018-12-26T09:05:50.258Z,3.00
2018-12-26T09:06:50.264Z,2.90
2018-12-26T09:07:50.238Z,2.70
2018-12-26T09:08:50.233Z,2.00
2018-12-26T09:09:50.227Z,2.50
2018-12-26T09:10:50.205Z,2.00
2018-12-26T09:11:50.190Z,2.50
2018-12-26T09:12:50.203Z,2.00
2018-12-26T09:13:50.166Z,3.40
2018-12-26T09:14:50.179Z,1.90
2018-12-26T09:15:50.152Z,2.20
2018-12-26T09:16:50.134Z,2.70
2018-12-26T09:17:50.129Z,2.30
2018-12-26T09:18:50.120Z,2.10
2018-12-26T09:19:50.120Z,1.90
2018-12-26T09:20:50.090Z,2.60
2018-12-26T09:21:50.078Z,2.50
2018-12-26T09:22:50.069Z,1.50
2018-12-26T09:23:50.057Z,2.90
2018-12-26T09:24:50.077Z,1.70
2018-12-26T09:25:50.038Z,1.70
2018-12-26T09:26:50.033Z,2.00
2018-12-26T09:27:50.014Z,2.80
2018-12-26T09:28:50.004Z,1.60
2018-12-26T09:29:50.007Z,1.40
2018-12-26T09:30:49.994Z,2.10
2018-12-26T09:31:49.982Z,4.00
2018-12-26T09:32:49.959Z,2.50
2018-12-26T09:33:49.948Z,4.00
2018-12-26T09:34:49.956Z,6.20
2018-12-26T09:35:49.929Z,3.40
2018-12-26T09:36:49.931Z,2.60
2018-12-26T09:37:49.904Z,3.20
2018-12-26T09:38:49.893Z,3.00
2018-12-26T09:39:49.900Z,2.40
2018-12-26T09:40:49.870Z,2.40
2018-12-26T09:41:49.858Z,2.50
2018-12-26T09:42:49.858Z,4.10
2018-12-26T09:43:49.838Z,1.90
2018-12-26T09:44:54.490Z,2.50
2018-12-26T09:45:49.815Z,4.10
2018-12-26T09:46:49.801Z,3.30
2018-12-26T09:47:49.824Z,4.20
2018-12-26T09:48:49.795Z,3.20
2018-12-26T09:49:49.840Z,3.60
2018-12-26T09:50:49.764Z,4.20
2018-12-26T09:51:49.747Z,4.00
2018-12-26T09:52:49.742Z,4.00
2018-12-26T09:53:49.725Z,3.40
2018-12-26T09:54:49.730Z,5.80
2018-12-26T09:55:49.733Z,2.40
2018-12-26T09:56:49.692Z,4.70
2018-12-26T09:57:49.688Z,2.40
2018-12-26T09:58:52.698Z,2.50
2018-12-26T09:59:49.664Z,2.40
2018-12-26T10:00:49.673Z,4.30
2018-12-26T10:01:49.637Z,2.30
2018-12-26T10:02:49.641Z,2.00
2018-12-26T10:03:49.617Z,3.90
2018-12-26T10:04:49.647Z,2.70
2018-12-26T10:05:49.609Z,2.10
2018-12-26T10:06:49.587Z,3.10
2018-12-26T10:07:49.583Z,2.00
2018-12-26T10:08:49.562Z,2.20
2018-12-26T10:09:49.549Z,2.20
2018-12-26T10:10:49.562Z,2.90
2018-12-26T10:11:49.530Z,2.50
2018-12-26T10:12:49.524Z,3.30
2018-12-26T10:13:50.842Z,3.10
2018-12-26T10:14:49.493Z,4.10
2018-12-26T10:15:49.501Z,2.60
2018-12-26T10:16:49.470Z,3.30
2018-12-26T10:17:49.468Z,2.40
2018-12-26T10:18:49.454Z,2.80
2018-12-26T10:19:50.298Z,2.80
2018-12-26T10:20:49.450Z,2.10
2018-12-26T10:21:49.414Z,3.30
2018-12-26T10:22:49.407Z,1.90
2018-12-26T10:23:49.399Z,3.10
2018-12-26T10:24:49.385Z,2.50
2018-12-26T10:25:49.445Z,1.80
2018-12-26T10:26:49.359Z,2.00
2018-12-26T10:27:49.351Z,2.00
2018-12-26T10:28:49.337Z,2.20
2018-12-26T10:29:49.327Z,5.60
2018-12-26T10:30:49.348Z,3.00
2018-12-26T10:31:49.303Z,2.80
2018-12-26T10:32:49.294Z,3.00
2018-12-26T10:33:49.299Z,2.00
2018-12-26T10:34:49.272Z,3.30
2018-12-26T10:35:49.281Z,2.40
2018-12-26T10:36:49.250Z,2.20
2018-12-26T10:37:49.242Z,3.50
2018-12-26T10:38:49.228Z,3.20
2018-12-26T10:39:49.236Z,3.10
2018-12-26T10:40:49.227Z,2.80
2018-12-26T10:41:49.201Z,4.20
2018-12-26T10:42:49.191Z,2.60
2018-12-26T10:43:49.172Z,3.20
2018-12-26T10:44:49.161Z,4.10
2018-12-26T10:45:49.192Z,3.10
2018-12-26T10:46:49.146Z,4.90
2018-12-26T10:47:49.130Z,4.50
2018-12-26T10:48:49.124Z,3.50
2018-12-26T10:49:49.109Z,2.80
2018-12-26T10:50:49.099Z,2.50
2018-12-26T10:51:49.110Z,1.60
2018-12-26T10:52:49.080Z,9.20
2018-12-26T10:53:49.068Z,5.50
2018-12-26T10:54:49.054Z,3.10
2018-12-26T10:55:49.043Z,5.10
2018-12-26T10:56:49.053Z,3.70
2018-12-26T10:57:49.038Z,3.00
2018-12-26T10:58:49.009Z,4.90
2018-12-26T10:59:48.998Z,3.00
2018-12-26T11:00:48.987Z,4.70
2018-12-26T11:01:48.996Z,3.80
2018-12-26T11:02:48.976Z,4.30
2018-12-26T11:03:48.954Z,2.90
2018-12-26T11:04:48.964Z,4.10
2018-12-26T11:05:48.931Z,5.20
2018-12-26T11:06:48.964Z,5.70
2018-12-26T11:07:48.911Z,6.50
2018-12-26T11:08:48.898Z,3.20
2018-12-26T11:09:48.891Z,4.40
2018-12-26T11:10:48.900Z,5.20
2018-12-26T11:11:48.880Z,3.90
2018-12-26T11:12:48.855Z,4.90
2018-12-26T11:13:48.847Z,4.20
2018-12-26T11:14:48.834Z,4.40
2018-12-26T11:15:48.874Z,3.30
2018-12-26T11:16:48.838Z,3.50
2018-12-26T11:17:48.804Z,8.40
2018-12-26T11:18:48.812Z,6.40
2018-12-26T11:19:48.813Z,10.10
2018-12-26T11:20:48.763Z,8.40
2018-12-26T11:21:48.770Z,14.90
2018-12-26T11:22:48.741Z,14.30
2018-12-26T11:23:48.734Z,16.60
2018-12-26T11:24:48.725Z,12.10
2018-12-26T11:25:48.713Z,12.60
2018-12-26T11:26:48.717Z,8.70
2018-12-26T11:27:48.704Z,10.20
2018-12-26T11:28:48.675Z,10.70
2018-12-26T11:29:48.664Z,14.50
2018-12-26T11:30:48.660Z,16.20
2018-12-26T11:31:48.656Z,14.00
2018-12-26T11:32:48.638Z,13.50
2018-12-26T11:33:48.620Z,12.00
2018-12-26T11:34:48.638Z,13.00
2018-12-26T11:35:48.603Z,9.30
2018-12-26T11:36:48.608Z,11.20
2018-12-26T11:37:48.576Z,15.50
2018-12-26T11:38:48.573Z,10.20
2018-12-26T11:39:48.552Z,11.00
2018-12-26T11:40:48.543Z,9.40
2018-12-26T11:41:49.066Z,10.30
2018-12-26T11:42:48.531Z,10.10
2018-12-26T11:43:48.508Z,10.20
2018-12-26T11:44:48.499Z,16.50
2018-12-26T11:45:48.489Z,18.60
2018-12-26T11:46:48.478Z,21.80
2018-12-26T11:47:48.501Z,21.80
2018-12-26T11:48:48.469Z,22.40
2018-12-26T11:49:48.458Z,23.60
2018-12-26T11:50:48.581Z,22.90
2018-12-26T11:51:48.433Z,24.30
2018-12-26T11:52:48.434Z,18.70
2018-12-26T11:53:48.406Z,20.20
2018-12-26T11:54:48.407Z,20.60
2018-12-26T11:55:48.381Z,17.40
2018-12-26T11:56:48.368Z,16.90
2018-12-26T11:57:48.360Z,17.00
2018-12-26T11:58:48.350Z,17.80
2018-12-26T11:59:48.496Z,21.70
2018-12-26T12:00:48.331Z,16.00
2018-12-26T12:01:48.313Z,16.00
2018-12-26T12:02:48.320Z,16.10
2018-12-26T12:03:48.296Z,15.30
2018-12-26T12:04:48.282Z,18.90
2018-12-26T12:05:48.317Z,21.50
2018-12-26T12:06:48.801Z,15.70
2018-12-26T12:07:48.327Z,18.40
2018-12-26T12:08:48.239Z,13.80
2018-12-26T12:09:48.232Z,12.40
2018-12-26T12:10:50.171Z,14.10
2018-12-26T12:11:48.373Z,13.90
2018-12-26T12:12:48.196Z,16.10
2018-12-26T12:13:48.214Z,11.70
2018-12-26T12:14:48.189Z,9.10
2018-12-26T12:15:48.179Z,10.40
2018-12-26T12:16:48.912Z,10.60
2018-12-26T12:17:49.167Z,12.30
2018-12-26T12:18:48.127Z,13.20
2018-12-26T12:19:48.116Z,11.60
2018-12-26T12:20:48.119Z,9.70
2018-12-26T12:21:48.094Z,12.90
2018-12-26T12:22:48.104Z,13.10
2018-12-26T12:23:48.080Z,12.40
2018-12-26T12:24:48.065Z,9.10
2018-12-26T12:25:48.054Z,8.00
2018-12-26T12:26:48.047Z,7.80
2018-12-26T12:27:48.047Z,8.20
2018-12-26T12:28:48.034Z,10.20
2018-12-26T12:29:48.011Z,8.20
2018-12-26T12:30:47.998Z,8.30
2018-12-26T12:31:47.992Z,9.20
2018-12-26T12:32:48.028Z,8.10
2018-12-26T12:33:47.969Z,8.40
2018-12-26T12:34:47.953Z,8.10
2018-12-26T12:35:47.949Z,7.40
2018-12-26T12:36:47.936Z,7.70
2018-12-26T12:37:47.935Z,6.50
2018-12-26T12:38:47.912Z,7.80
2018-12-26T12:39:47.904Z,7.00
2018-12-26T12:40:47.892Z,8.10
2018-12-26T12:41:47.878Z,7.30
2018-12-26T12:42:47.900Z,6.60
2018-12-26T12:43:47.854Z,7.90
2018-12-26T12:44:47.845Z,7.40
2018-12-26T12:45:47.842Z,6.10
2018-12-26T12:46:47.824Z,6.10
2018-12-26T12:47:47.814Z,5.40
2018-12-26T12:48:47.829Z,5.90
2018-12-26T12:49:47.795Z,6.00
2018-12-26T12:50:47.779Z,7.90
2018-12-26T12:51:47.779Z,7.20
2018-12-26T12:52:47.796Z,5.40
2018-12-26T12:53:47.762Z,6.50
2018-12-26T12:54:47.735Z,6.70
2018-12-26T12:55:47.721Z,5.30
2018-12-26T12:56:47.711Z,7.30
2018-12-26T12:57:47.713Z,5.80
2018-12-26T12:58:47.708Z,9.00
2018-12-26T12:59:47.694Z,9.30
2018-12-26T13:00:47.667Z,5.20
2018-12-26T13:01:47.657Z,6.10
2018-12-26T13:02:47.652Z,6.20
2018-12-26T13:03:47.662Z,5.60
2018-12-26T13:04:47.627Z,5.30
2018-12-26T13:05:47.631Z,7.40
2018-12-26T13:06:47.601Z,4.40
2018-12-26T13:07:47.593Z,6.30
2018-12-26T13:08:47.594Z,5.00
2018-12-26T13:09:47.596Z,6.30
2018-12-26T13:10:47.563Z,5.00
2018-12-26T13:11:47.547Z,5.20
2018-12-26T13:12:47.541Z,6.50
2018-12-26T13:13:47.541Z,5.70
2018-12-26T13:14:47.513Z,6.10